createdAt,value
2019-03-27T00:01:10.855Z,6.67
2019-03-27T00:03:39.417Z,6.71
2019-03-27T00:06:07.961Z,6.62
2019-03-27T00:08:36.440Z,6.66
2019-03-27T00:11:04.996Z,6.66
2019-03-27T00:13:33.488Z,6.65
2019-03-27T00:16:01.992Z,6.60
2019-03-27T00:18:30.560Z,6.59
2019-03-27T00:20:59.031Z,6.56
2019-03-27T00:23:27.608Z,6.67
2019-03-27T00:25:56.062Z,6.67
2019-03-27T00:28:24.601Z,6.66
2019-03-27T00:30:53.086Z,6.65
2019-03-27T00:33:21.624Z,6.67
2019-03-27T00:35:50.131Z,6.65
2019-03-27T00:38:18.578Z,6.62
2019-03-27T00:40:47.074Z,6.59
2019-03-27T00:43:15.552Z,6.08
2019-03-27T00:45:44.006Z,6.63
2019-03-27T00:48:12.535Z,6.61
2019-03-27T00:50:40.997Z,6.60
2019-03-27T00:53:09.510Z,6.65
2019-03-27T00:55:37.997Z,6.66
2019-03-27T00:58:06.638Z,6.70
2019-03-27T01:00:47.060Z,6.67
2019-03-27T01:03:15.635Z,6.62
2019-03-27T01:05:44.142Z,6.64
2019-03-27T01:08:12.626Z,6.59
2019-03-27T01:10:41.117Z,6.61
2019-03-27T01:13:09.698Z,6.59
2019-03-27T01:15:40.443Z,6.59
2019-03-27T01:18:08.984Z,6.56
2019-03-27T01:20:37.498Z,6.51
2019-03-27T01:23:05.970Z,6.50
2019-03-27T01:25:34.444Z,6.49
2019-03-27T01:28:04.613Z,6.47
2019-03-27T01:30:33.088Z,6.46
2019-03-27T01:33:03.112Z,6.46
2019-03-27T01:35:31.585Z,6.46
2019-03-27T01:38:00.056Z,6.43
2019-03-27T01:40:28.589Z,6.47
2019-03-27T01:42:57.084Z,6.42
2019-03-27T01:45:25.562Z,6.37
2019-03-27T01:47:54.040Z,6.43
2019-03-27T01:50:22.633Z,6.43
2019-03-27T01:52:53.148Z,6.44
2019-03-27T01:55:21.504Z,6.47
2019-03-27T01:57:50.045Z,5.94
2019-03-27T02:00:18.683Z,6.47
2019-03-27T02:02:49.242Z,6.50
2019-03-27T02:05:17.966Z,6.49
2019-03-27T02:07:46.752Z,6.57
2019-03-27T02:10:17.451Z,6.60
2019-03-27T02:12:45.945Z,6.56
2019-03-27T02:15:14.687Z,6.61
2019-03-27T02:17:45.609Z,6.66
2019-03-27T02:20:14.294Z,6.62
2019-03-27T02:22:44.474Z,6.55
2019-03-27T02:25:14.869Z,6.55
2019-03-27T02:27:43.415Z,6.53
2019-03-27T02:30:12.346Z,6.50
2019-03-27T02:32:40.874Z,6.56
2019-03-27T02:35:09.468Z,6.53
2019-03-27T02:37:37.968Z,6.54
2019-03-27T02:40:12.613Z,6.49
2019-03-27T02:42:43.025Z,6.53
2019-03-27T02:45:11.890Z,6.47
2019-03-27T02:47:40.417Z,6.45
2019-03-27T02:50:10.630Z,6.51
2019-03-27T02:52:41.931Z,6.52
2019-03-27T02:55:10.792Z,6.50
2019-03-27T02:57:39.258Z,6.47
2019-03-27T03:00:12.485Z,6.49
2019-03-27T03:02:41.108Z,6.56
2019-03-27T03:05:10.724Z,6.53
2019-03-27T03:07:39.186Z,6.47
2019-03-27T03:10:10.768Z,6.47
2019-03-27T03:12:39.220Z,6.49
2019-03-27T03:15:10.553Z,6.48
2019-03-27T03:17:39.025Z,6.43
2019-03-27T03:20:08.776Z,6.48
2019-03-27T03:22:40.610Z,6.46
2019-03-27T03:25:09.751Z,6.44
2019-03-27T03:27:38.277Z,6.46
2019-03-27T03:30:13.066Z,6.43
2019-03-27T03:32:41.586Z,6.35
2019-03-27T03:35:10.826Z,6.39
2019-03-27T03:37:39.337Z,6.32
2019-03-27T03:40:11.100Z,6.32
2019-03-27T03:42:40.567Z,6.26
2019-03-27T03:45:09.405Z,6.27
2019-03-27T03:47:37.876Z,6.24
2019-03-27T03:50:07.572Z,6.25
2019-03-27T03:52:36.153Z,6.15
2019-03-27T03:55:06.123Z,6.16
2019-03-27T03:57:37.220Z,6.20
2019-03-27T04:00:07.663Z,6.27
2019-03-27T04:02:37.427Z,6.31
2019-03-27T04:05:07.693Z,6.34
2019-03-27T04:07:36.144Z,6.36
2019-03-27T04:10:06.801Z,6.36
2019-03-27T04:12:35.738Z,6.40
2019-03-27T04:15:05.702Z,6.38
2019-03-27T04:17:34.198Z,6.40
2019-03-27T04:20:02.840Z,6.41
2019-03-27T04:22:31.333Z,6.39
2019-03-27T04:24:59.821Z,6.42
2019-03-27T04:27:28.292Z,6.42
2019-03-27T04:29:56.755Z,6.39
2019-03-27T04:32:25.242Z,6.45
2019-03-27T04:34:53.706Z,6.39
2019-03-27T04:37:22.183Z,6.44
2019-03-27T04:39:50.760Z,6.45
2019-03-27T04:42:19.222Z,6.42
2019-03-27T04:44:47.721Z,6.44
2019-03-27T04:47:31.139Z,6.40
2019-03-27T04:49:46.406Z,6.38
2019-03-27T04:52:14.878Z,6.35
2019-03-27T04:54:43.358Z,6.36
2019-03-27T04:57:11.821Z,6.37
2019-03-27T04:59:40.284Z,6.38
2019-03-27T05:02:08.764Z,6.43
2019-03-27T05:04:37.598Z,6.34
2019-03-27T05:07:06.096Z,6.39
2019-03-27T05:09:34.572Z,6.42
2019-03-27T05:12:03.150Z,6.42
2019-03-27T05:14:33.335Z,6.42
2019-03-27T05:17:01.789Z,6.48
2019-03-27T05:19:30.270Z,6.53
2019-03-27T05:21:58.726Z,6.44
2019-03-27T05:24:27.210Z,6.43
2019-03-27T05:26:55.661Z,6.46
2019-03-27T05:29:24.150Z,6.46
2019-03-27T05:31:52.625Z,6.50
2019-03-27T05:34:24.234Z,6.48
2019-03-27T05:36:52.737Z,6.52
2019-03-27T05:39:21.765Z,6.52
2019-03-27T05:41:52.299Z,6.53
2019-03-27T05:44:20.832Z,6.56
2019-03-27T05:46:51.400Z,6.58
2019-03-27T05:49:19.941Z,6.51
2019-03-27T05:51:48.436Z,6.53
2019-03-27T05:54:16.903Z,6.53
2019-03-27T05:56:45.487Z,6.58
2019-03-27T05:59:14.021Z,6.64
2019-03-27T06:01:43.044Z,6.64
2019-03-27T06:04:11.538Z,6.62
2019-03-27T06:06:40.043Z,6.70
2019-03-27T06:09:08.515Z,6.66
2019-03-27T06:11:37.009Z,6.64
2019-03-27T06:14:08.471Z,6.68
2019-03-27T06:16:36.977Z,6.73
2019-03-27T06:19:05.451Z,6.73
2019-03-27T06:21:33.950Z,6.86
2019-03-27T06:24:02.486Z,6.90
2019-03-27T06:26:33.788Z,6.88
2019-03-27T06:29:04.437Z,6.93
2019-03-27T06:31:32.981Z,7.00
2019-03-27T06:34:04.730Z,6.98
2019-03-27T06:36:33.205Z,6.94
2019-03-27T06:39:01.706Z,6.93
2019-03-27T06:41:30.177Z,6.91
2019-03-27T06:43:58.658Z,6.96
2019-03-27T06:46:29.121Z,7.01
2019-03-27T06:48:57.689Z,7.00
2019-03-27T06:51:40.416Z,7.11
2019-03-27T06:54:06.707Z,7.06
2019-03-27T06:56:35.173Z,7.14
2019-03-27T06:59:04.074Z,7.13
2019-03-27T07:01:33.756Z,7.13
2019-03-27T07:04:10.372Z,7.20
2019-03-27T07:06:32.395Z,7.30
2019-03-27T07:09:01.073Z,7.38
2019-03-27T07:11:29.531Z,7.36
2019-03-27T07:13:58.021Z,7.32
2019-03-27T07:16:26.510Z,7.44
2019-03-27T07:18:54.958Z,7.45
2019-03-27T07:21:23.432Z,7.45
2019-03-27T07:23:51.959Z,7.49
2019-03-27T07:26:20.446Z,7.45
2019-03-27T07:28:50.632Z,7.48
2019-03-27T07:31:19.138Z,7.51
2019-03-27T07:33:47.619Z,7.63
2019-03-27T07:36:16.097Z,7.66
2019-03-27T07:38:44.647Z,7.61
2019-03-27T07:41:13.120Z,7.53
2019-03-27T07:43:42.038Z,7.59
2019-03-27T07:46:10.488Z,7.65
2019-03-27T07:48:38.958Z,7.71
2019-03-27T07:51:07.510Z,7.68
2019-03-27T07:53:36.050Z,7.71
2019-03-27T07:56:04.786Z,7.68
2019-03-27T07:58:33.265Z,7.82
2019-03-27T08:01:01.752Z,7.85
2019-03-27T08:03:30.258Z,7.90
2019-03-27T08:05:58.807Z,7.82
2019-03-27T08:08:28.940Z,7.95
2019-03-27T08:11:00.126Z,8.02
2019-03-27T08:13:28.602Z,8.05
2019-03-27T08:15:58.590Z,8.12
2019-03-27T08:18:27.088Z,8.04
2019-03-27T08:20:55.618Z,8.01
2019-03-27T08:23:24.170Z,8.18
2019-03-27T08:25:52.702Z,8.07
2019-03-27T08:28:21.192Z,8.02
2019-03-27T08:30:49.662Z,8.11
2019-03-27T08:33:18.245Z,8.08
2019-03-27T08:35:46.737Z,8.08
2019-03-27T08:38:15.272Z,8.08
2019-03-27T08:40:43.824Z,8.12
2019-03-27T08:43:21.084Z,8.18
2019-03-27T08:45:42.502Z,8.22
2019-03-27T08:48:10.952Z,8.25
2019-03-27T08:50:39.870Z,8.36
2019-03-27T08:53:08.354Z,8.53
2019-03-27T08:55:36.832Z,8.46
2019-03-27T08:58:05.820Z,8.40
2019-03-27T09:00:54.290Z,8.37
2019-03-27T09:03:24.159Z,8.45
2019-03-27T09:05:52.732Z,8.49
2019-03-27T09:08:22.739Z,8.49
2019-03-27T09:10:51.307Z,8.49
2019-03-27T09:13:19.937Z,8.53
2019-03-27T09:15:48.490Z,8.57
2019-03-27T09:18:17.165Z,8.59
2019-03-27T09:20:45.736Z,8.63
2019-03-27T09:23:14.324Z,8.60
2019-03-27T09:25:42.798Z,8.69
2019-03-27T09:28:11.269Z,8.72
2019-03-27T09:30:42.815Z,8.79
2019-03-27T09:33:12.924Z,8.84
2019-03-27T09:35:42.926Z,8.96
2019-03-27T09:38:11.457Z,8.95
2019-03-27T09:40:44.077Z,9.05
2019-03-27T09:43:12.547Z,9.02
2019-03-27T09:45:41.404Z,9.08
2019-03-27T09:48:10.021Z,9.02
2019-03-27T09:50:38.507Z,9.03
2019-03-27T09:53:07.032Z,9.01
2019-03-27T09:55:35.528Z,9.02
2019-03-27T09:58:04.146Z,9.04
2019-03-27T10:00:47.365Z,9.09
2019-03-27T10:03:15.834Z,9.17
2019-03-27T10:05:46.917Z,9.21
2019-03-27T10:08:15.376Z,9.15
2019-03-27T10:10:43.863Z,9.32
2019-03-27T10:13:13.523Z,9.27
2019-03-27T10:15:44.837Z,9.33
2019-03-27T10:18:13.291Z,9.33
2019-03-27T10:20:41.764Z,9.38
2019-03-27T10:23:10.247Z,9.28
2019-03-27T10:25:39.305Z,9.35
2019-03-27T10:28:08.163Z,9.39
2019-03-27T10:30:36.781Z,9.40
2019-03-27T10:33:05.261Z,9.51
2019-03-27T10:35:33.800Z,9.57
2019-03-27T10:38:02.253Z,9.62
2019-03-27T10:40:30.752Z,9.62
2019-03-27T10:42:59.243Z,9.78
2019-03-27T10:45:29.591Z,9.76
2019-03-27T10:47:58.061Z,9.76
2019-03-27T10:50:26.599Z,9.91
2019-03-27T10:52:55.058Z,9.86
2019-03-27T10:55:23.686Z,9.84
2019-03-27T10:57:52.223Z,9.70
2019-03-27T11:00:20.983Z,9.68
2019-03-27T11:02:50.967Z,9.58
2019-03-27T11:05:19.734Z,9.70
2019-03-27T11:07:48.481Z,9.68
2019-03-27T11:10:17.223Z,9.63
2019-03-27T11:12:45.789Z,9.69
2019-03-27T11:15:15.340Z,9.69
2019-03-27T11:17:43.991Z,9.72
2019-03-27T11:20:13.061Z,9.70
2019-03-27T11:22:41.606Z,9.65
2019-03-27T11:25:10.506Z,9.70
2019-03-27T11:27:39.070Z,9.58
2019-03-27T11:30:08.517Z,9.56
2019-03-27T11:32:37.340Z,9.50
2019-03-27T11:35:06.532Z,9.52
2019-03-27T11:37:39.031Z,9.50
2019-03-27T11:40:07.770Z,9.56
2019-03-27T11:42:36.313Z,9.58
2019-03-27T11:45:09.598Z,9.67
2019-03-27T11:47:40.849Z,9.53
2019-03-27T11:50:11.081Z,9.91
2019-03-27T11:52:40.412Z,10.08
2019-03-27T11:55:09.225Z,10.18
2019-03-27T11:57:37.838Z,10.21
2019-03-27T12:00:13.380Z,10.06
2019-03-27T12:02:42.064Z,10.01
2019-03-27T12:05:11.192Z,9.95
2019-03-27T12:07:39.792Z,10.08
2019-03-27T12:10:09.126Z,10.09
2019-03-27T12:12:37.614Z,10.07
2019-03-27T12:15:09.481Z,9.91
2019-03-27T12:17:38.045Z,9.84
2019-03-27T12:20:07.504Z,9.88
2019-03-27T12:22:36.060Z,9.71
2019-03-27T12:25:05.831Z,9.79
2019-03-27T12:30:57.993Z,9.58
2019-03-27T12:33:26.618Z,9.34
2019-03-27T12:36:00.983Z,9.33
2019-03-27T12:38:30.931Z,9.21
2019-03-27T12:40:59.429Z,9.12
2019-03-27T12:43:27.964Z,9.13
2019-03-27T12:45:56.479Z,9.16
2019-03-27T12:48:25.058Z,9.23
2019-03-27T12:50:53.513Z,9.19
2019-03-27T12:53:22.771Z,9.20
2019-03-27T12:55:54.558Z,9.05
2019-03-27T12:58:24.955Z,9.09
2019-03-27T13:00:53.495Z,9.09
2019-03-27T13:03:22.129Z,9.22
2019-03-27T13:05:50.625Z,9.19
2019-03-27T13:08:21.236Z,9.20
2019-03-27T13:10:49.408Z,9.17
2019-03-27T13:13:20.990Z,9.14
2019-03-27T13:15:49.842Z,9.11
2019-03-27T13:18:19.579Z,9.02
2019-03-27T13:20:57.584Z,9.00
2019-03-27T13:23:26.156Z,9.05
2019-03-27T13:26:05.247Z,8.99
2019-03-27T13:28:48.290Z,8.96
2019-03-27T13:31:08.798Z,8.92
2019-03-27T13:33:38.267Z,8.93
2019-03-27T13:36:07.813Z,9.04
2019-03-27T13:38:37.849Z,9.03
2019-03-27T13:41:06.397Z,8.95
2019-03-27T13:43:34.859Z,8.86
2019-03-27T13:46:03.439Z,8.85
2019-03-27T13:48:34.317Z,8.85
2019-03-27T13:51:02.856Z,8.90
2019-03-27T13:53:31.360Z,8.49
2019-03-27T13:56:03.804Z,8.85
2019-03-27T13:58:34.234Z,8.78
2019-03-27T14:01:08.908Z,8.74
2019-03-27T14:03:37.602Z,8.78
2019-03-27T14:06:06.147Z,8.80
2019-03-27T14:08:34.730Z,8.74
2019-03-27T14:11:06.454Z,8.77
2019-03-27T14:13:34.950Z,8.84
2019-03-27T14:16:03.564Z,8.85
2019-03-27T14:18:32.061Z,8.72
2019-03-27T14:21:01.831Z,8.70
2019-03-27T14:23:31.984Z,8.82
2019-03-27T14:26:00.648Z,8.87
2019-03-27T14:28:29.239Z,8.89
2019-03-27T14:30:58.698Z,8.91
2019-03-27T14:33:27.326Z,8.92
2019-03-27T14:35:55.862Z,8.96
2019-03-27T14:38:24.485Z,8.99
2019-03-27T14:40:53.115Z,8.95
2019-03-27T14:43:21.660Z,8.92
2019-03-27T14:45:50.570Z,8.81
2019-03-27T14:48:19.130Z,8.82
2019-03-27T14:50:47.603Z,8.87
2019-03-27T14:53:16.196Z,8.86
2019-03-27T14:55:44.632Z,8.91
2019-03-27T14:58:13.080Z,8.95
2019-03-27T15:00:41.703Z,8.93
2019-03-27T15:03:10.238Z,8.93
2019-03-27T15:05:38.768Z,8.86
2019-03-27T15:08:07.343Z,8.89
2019-03-27T15:10:35.908Z,8.89
2019-03-27T15:13:04.597Z,8.91
2019-03-27T15:15:33.179Z,8.95
2019-03-27T15:18:01.833Z,8.95
2019-03-27T15:20:30.328Z,8.96
2019-03-27T15:22:58.800Z,9.00
2019-03-27T15:25:27.446Z,8.93
2019-03-27T15:27:56.032Z,8.92
2019-03-27T15:30:24.653Z,8.96
2019-03-27T15:32:53.276Z,8.87
2019-03-27T15:35:21.870Z,8.89
2019-03-27T15:37:50.865Z,8.87
2019-03-27T15:40:31.569Z,8.92
2019-03-27T15:43:00.122Z,8.94
2019-03-27T15:45:28.666Z,8.89
2019-03-27T15:47:57.221Z,8.91
2019-03-27T15:50:25.914Z,8.89
2019-03-27T15:52:54.464Z,8.90
2019-03-27T15:55:25.806Z,8.89
2019-03-27T15:57:54.470Z,8.85
2019-03-27T16:00:23.206Z,8.74
2019-03-27T16:02:51.760Z,8.80
2019-03-27T16:05:20.500Z,8.79
2019-03-27T16:07:49.065Z,8.75
2019-03-27T16:10:18.526Z,8.71
2019-03-27T16:12:48.558Z,8.77
2019-03-27T16:15:17.580Z,8.76
2019-03-27T16:17:49.216Z,8.70
2019-03-27T16:20:20.170Z,8.69
2019-03-27T16:22:51.139Z,8.66
2019-03-27T16:25:23.044Z,8.64
2019-03-27T16:27:51.519Z,8.64
2019-03-27T16:30:20.218Z,8.65
2019-03-27T16:32:48.679Z,8.62
2019-03-27T16:35:17.380Z,8.63
2019-03-27T16:37:47.605Z,8.61
2019-03-27T16:40:17.675Z,8.62
2019-03-27T16:42:46.179Z,8.59
2019-03-27T16:45:15.013Z,8.57
2019-03-27T16:47:43.730Z,8.58
2019-03-27T16:50:13.073Z,8.58
2019-03-27T16:52:41.532Z,8.59
2019-03-27T16:55:10.535Z,8.63
2019-03-27T16:57:39.028Z,8.62
2019-03-27T17:00:08.851Z,8.58
2019-03-27T17:02:40.060Z,8.58
2019-03-27T17:05:08.744Z,8.56
2019-03-27T17:07:37.228Z,8.59
2019-03-27T17:10:09.144Z,8.54
2019-03-27T17:12:38.228Z,8.52
2019-03-27T17:15:07.354Z,8.47
2019-03-27T17:17:35.889Z,8.49
2019-03-27T17:20:10.604Z,8.42
2019-03-27T17:22:38.340Z,8.44
2019-03-27T17:25:08.252Z,8.35
2019-03-27T17:27:37.391Z,8.42
2019-03-27T17:30:08.930Z,8.40
2019-03-27T17:32:37.473Z,8.41
2019-03-27T17:38:37.949Z,8.45
2019-03-27T17:41:06.534Z,8.40
2019-03-27T17:43:35.427Z,8.37
2019-03-27T17:46:06.975Z,8.37
2019-03-27T17:48:35.461Z,8.38
2019-03-27T17:51:04.418Z,8.39
2019-03-27T17:53:32.915Z,8.34
2019-03-27T17:56:01.391Z,8.36
2019-03-27T17:58:29.971Z,8.36
2019-03-27T18:00:58.701Z,8.42
2019-03-27T18:03:28.822Z,8.38
2019-03-27T18:05:57.357Z,8.40
2019-03-27T18:11:22.576Z,8.38
2019-03-27T18:13:51.075Z,8.33
2019-03-27T18:16:19.937Z,8.34
2019-03-27T18:18:48.540Z,8.35
2019-03-27T18:21:17.082Z,8.34
2019-03-27T18:23:47.134Z,8.31
2019-03-27T18:26:15.747Z,8.29
2019-03-27T18:28:44.260Z,8.31
2019-03-27T18:31:13.079Z,8.27
2019-03-27T18:33:41.557Z,8.27
2019-03-27T18:36:10.197Z,8.29
2019-03-27T18:38:42.007Z,8.31
2019-03-27T18:41:10.548Z,8.25
2019-03-27T18:43:39.105Z,8.29
2019-03-27T18:46:07.597Z,8.27
2019-03-27T18:48:36.075Z,8.30
2019-03-27T18:51:04.756Z,8.30
2019-03-27T18:53:33.338Z,8.31
2019-03-27T18:56:01.814Z,8.30
2019-03-27T18:58:30.368Z,8.25
2019-03-27T19:00:58.920Z,8.27
2019-03-27T19:03:27.570Z,8.19
2019-03-27T19:05:56.195Z,8.29
2019-03-27T19:08:24.747Z,8.26
2019-03-27T19:10:53.424Z,8.26
2019-03-27T19:13:22.072Z,8.20
2019-03-27T19:15:52.145Z,8.24
2019-03-27T19:18:26.788Z,8.21
2019-03-27T19:20:51.325Z,8.25
2019-03-27T19:23:22.561Z,8.23
2019-03-27T19:25:51.156Z,8.20
2019-03-27T19:28:21.705Z,8.20
2019-03-27T19:30:50.316Z,8.20
2019-03-27T19:33:18.811Z,8.20
2019-03-27T19:35:47.325Z,8.19
2019-03-27T19:38:15.951Z,8.16
2019-03-27T19:40:44.546Z,8.10
2019-03-27T19:43:13.032Z,8.13
2019-03-27T19:45:41.654Z,8.09
2019-03-27T19:48:13.306Z,8.09
2019-03-27T19:50:41.802Z,8.05
2019-03-27T19:53:10.361Z,8.03
2019-03-27T19:55:40.060Z,8.04
2019-03-27T19:58:10.148Z,8.08
2019-03-27T20:00:39.332Z,8.02
2019-03-27T20:03:07.985Z,8.03
2019-03-27T20:05:36.459Z,7.99
2019-03-27T20:08:05.277Z,8.04
2019-03-27T20:10:36.137Z,8.01
2019-03-27T20:13:04.784Z,7.97
2019-03-27T20:15:33.409Z,7.94
2019-03-27T20:18:06.793Z,7.95
2019-03-27T20:20:35.819Z,7.99
2019-03-27T20:23:14.907Z,8.00
2019-03-27T20:25:36.148Z,7.97
2019-03-27T20:28:04.798Z,7.96
2019-03-27T20:30:33.396Z,7.98
2019-03-27T20:33:02.030Z,8.00
2019-03-27T20:35:31.563Z,7.99
2019-03-27T20:38:00.281Z,7.97
2019-03-27T20:40:30.757Z,7.94
2019-03-27T20:43:02.133Z,7.90
2019-03-27T20:45:30.628Z,7.89
2019-03-27T20:47:59.109Z,7.90
2019-03-27T20:50:27.704Z,7.84
2019-03-27T20:52:56.224Z,7.84
2019-03-27T20:55:30.446Z,7.84
2019-03-27T20:57:55.152Z,7.86
2019-03-27T21:00:23.898Z,7.90
2019-03-27T21:02:52.475Z,7.90
2019-03-27T21:05:21.168Z,7.87
2019-03-27T21:07:49.713Z,7.83
2019-03-27T21:10:21.040Z,7.83
2019-03-27T21:12:53.797Z,7.92
2019-03-27T21:15:22.037Z,7.88
2019-03-27T21:17:50.615Z,7.87
2019-03-27T21:20:19.278Z,7.85
2019-03-27T21:22:48.013Z,7.82
2019-03-27T21:25:16.940Z,7.83
2019-03-27T21:27:47.998Z,7.82
2019-03-27T21:30:17.012Z,7.85
2019-03-27T21:32:50.593Z,7.75
2019-03-27T21:35:19.347Z,7.77
2019-03-27T21:37:48.559Z,7.73
2019-03-27T21:40:18.815Z,7.80
2019-03-27T21:42:48.629Z,7.76
2019-03-27T21:45:17.956Z,7.74
2019-03-27T21:47:46.465Z,7.75
2019-03-27T21:50:15.194Z,7.78
2019-03-27T21:52:44.551Z,7.78
2019-03-27T21:55:22.420Z,7.77
2019-03-27T21:57:46.080Z,7.79
2019-03-27T22:00:37.754Z,7.82
2019-03-27T22:03:12.422Z,7.76
2019-03-27T22:05:40.267Z,7.76
2019-03-27T22:08:09.258Z,7.66
2019-03-27T22:10:39.395Z,7.74
2019-03-27T22:13:07.882Z,7.76
2019-03-27T22:15:36.612Z,7.75
2019-03-27T22:18:06.397Z,7.71
2019-03-27T22:20:35.032Z,7.74
2019-03-27T22:23:03.627Z,7.73
2019-03-27T22:25:36.302Z,7.72
2019-03-27T22:28:04.547Z,7.71
2019-03-27T22:30:33.059Z,7.73
2019-03-27T22:33:02.821Z,7.71
2019-03-27T22:35:31.345Z,7.75
2019-03-27T22:38:00.307Z,7.73
2019-03-27T22:40:28.873Z,7.71
2019-03-27T22:42:57.641Z,7.72
2019-03-27T22:45:30.952Z,7.72
2019-03-27T22:47:59.496Z,7.72
2019-03-27T22:50:52.094Z,7.73
2019-03-27T22:53:20.955Z,7.65
2019-03-27T22:55:50.668Z,7.68
2019-03-27T22:58:20.717Z,7.68
2019-03-27T23:00:53.239Z,7.67
2019-03-27T23:03:23.660Z,7.72
2019-03-27T23:05:52.319Z,7.70
2019-03-27T23:08:20.993Z,7.69
2019-03-27T23:10:52.112Z,7.71
2019-03-27T23:13:20.630Z,7.69
2019-03-27T23:15:51.607Z,7.70
2019-03-27T23:18:20.099Z,7.75
2019-03-27T23:20:50.271Z,7.70
2019-03-27T23:23:20.866Z,7.73
2019-03-27T23:26:02.462Z,7.75
2019-03-27T23:28:20.860Z,7.71
2019-03-27T23:30:49.362Z,7.75
2019-03-27T23:33:20.293Z,7.73
2019-03-27T23:35:48.313Z,7.68
2019-03-27T23:38:20.389Z,7.64
2019-03-27T23:40:48.907Z,7.65
2019-03-27T23:43:17.398Z,7.73
2019-03-27T23:45:45.975Z,7.75
2019-03-27T23:51:08.661Z,7.71
2019-03-27T23:53:37.249Z,7.75
2019-03-27T23:56:15.811Z,7.75
2019-03-27T23:58:36.164Z,7.70
